Time;durP1;ratioP1;P1;durP2;ratioP2;P2;SDS_P1;SDS_P2;PMS_P1;PMS_P2;Temp;Humidity;BMP_temperature;BMP_pressure;BME280_temperature;BME280_humidity;BME280_pressure;Samples;Min_cycle;Max_cycle;Signal;HPM_P1;HPM_P2
2022/04/12 00:01:13;;;;;;;3.17;1.95;;;;;;;5.54;83.28;101458.75;5017000;28;20405;-73
2022/04/12 00:03:38;;;;;;;7.53;1.98;;;;;;;5.62;84.10;101472.16;5004946;28;20042;-73
2022/04/12 00:06:04;;;;;;;5.15;1.65;;;;;;;5.57;83.14;101469.00;5021105;28;20075;-74
2022/04/12 00:08:29;;;;;;;3.10;1.80;;;;;;;5.56;83.97;101457.69;5017270;28;20033;-73
2022/04/12 00:10:55;;;;;;;4.00;2.00;;;;;;;5.61;82.78;101454.75;5022655;28;20058;-73
2022/04/12 00:13:20;;;;;;;2.30;1.50;;;;;;;5.65;82.30;101450.16;5017275;28;20038;-73
2022/04/12 00:15:48;;;;;;;4.28;1.75;;;;;;;5.66;82.17;101451.81;5018449;28;20489;-73
2022/04/12 00:20:58;;;;;;;5.50;2.13;;;;;;;5.65;82.22;101453.63;5022324;28;20083;-73
2022/04/12 00:23:24;;;;;;;4.47;1.92;;;;;;;5.19;82.35;101391.25;5015645;28;20037;-73
2022/04/12 00:25:50;;;;;;;7.15;1.90;;;;;;;5.61;82.41;101470.47;5019793;28;20057;-74
2022/04/12 00:28:15;;;;;;;4.80;2.10;;;;;;;5.60;82.40;101462.75;5021210;28;20437;-74
2022/04/12 00:30:42;;;;;;;4.00;1.92;;;;;;;5.61;82.69;101467.03;5017817;28;20108;-74
2022/04/12 00:33:08;;;;;;;4.22;2.53;;;;;;;5.61;82.79;101462.63;5015575;28;20029;-74
2022/04/12 00:35:33;;;;;;;4.38;1.92;;;;;;;5.51;82.87;101441.47;5019088;28;20482;-74
2022/04/12 00:37:59;;;;;;;3.00;1.63;;;;;;;5.63;82.07;101470.38;5018105;28;20044;-73
2022/04/12 00:40:26;;;;;;;6.25;2.20;;;;;;;5.50;82.11;101449.41;5018836;28;20053;-73
2022/04/12 00:42:53;;;;;;;5.22;2.53;;;;;;;5.63;81.86;101470.38;5021911;28;20340;-73
2022/04/12 00:45:19;;;;;;;3.65;2.20;;;;;;;5.64;82.23;101474.66;5021045;28;20074;-74
2022/04/12 00:47:45;;;;;;;4.38;2.10;;;;;;;5.65;81.77;101471.94;5017551;28;20450;-73
2022/04/12 00:50:13;;;;;;;4.13;2.30;;;;;;;5.63;82.67;101462.53;5019168;28;20080;-73
2022/04/12 00:52:41;;;;;;;4.13;1.85;;;;;;;5.54;82.49;101443.88;5016916;28;20109;-73
2022/04/12 00:55:07;;;;;;;4.47;2.50;;;;;;;5.57;81.95;101443.69;5005634;28;20430;-74
2022/04/12 00:57:33;;;;;;;4.40;2.28;;;;;;;5.62;82.86;101445.97;5015660;28;20052;-73
2022/04/12 01:00:07;;;;;;;7.22;2.55;;;;;;;5.60;82.18;101440.00;5019229;28;20029;-73
2022/04/12 01:02:34;;;;;;;3.05;1.67;;;;;;;5.51;82.67;101423.13;5015558;28;20041;-75
2022/04/12 01:05:01;;;;;;;4.72;2.72;;;;;;;5.60;83.04;101436.56;5016528;28;20068;-76
2022/04/12 01:07:27;;;;;;;4.47;2.20;;;;;;;5.55;82.54;101428.97;5016150;28;20029;-76
2022/04/12 01:09:53;;;;;;;5.00;2.67;;;;;;;5.51;82.61;101432.78;5019197;28;20022;-76
2022/04/12 01:12:21;;;;;;;5.20;2.13;;;;;;;5.52;82.58;101424.78;5001555;28;20064;-75
2022/04/12 01:14:47;;;;;;;4.82;2.40;;;;;;;5.45;82.93;101412.25;5016690;28;20048;-75
2022/04/12 01:17:12;;;;;;;4.68;2.55;;;;;;;5.46;82.91;101419.97;5016983;28;20030;-75
2022/04/12 01:19:38;;;;;;;5.32;3.03;;;;;;;5.38;82.66;101406.56;5016638;28;20646;-76
2022/04/12 01:22:05;;;;;;;3.28;2.13;;;;;;;5.46;82.29;101413.91;5019049;28;20033;-76
2022/04/12 01:24:32;;;;;;;4.80;2.63;;;;;;;5.49;82.22;101416.34;5017289;28;20497;-76
2022/04/12 01:26:59;;;;;;;6.63;2.97;;;;;;;5.47;81.26;101398.09;5016208;28;20025;-76
2022/04/12 01:29:25;;;;;;;6.30;3.05;;;;;;;5.45;81.36;101407.84;5018619;28;20103;-76
2022/04/12 01:31:51;;;;;;;5.38;2.70;;;;;;;5.40;81.02;101388.13;5017343;28;20036;-76
2022/04/12 01:34:16;;;;;;;8.90;3.00;;;;;;;5.49;80.67;101398.84;5017737;28;20034;-76
2022/04/12 01:36:42;;;;;;;4.53;2.83;;;;;;;5.47;80.53;101390.25;5016472;28;20136;-76
2022/04/12 01:39:07;;;;;;;5.53;3.55;;;;;;;5.50;80.67;101386.56;5019680;28;20029;-76
2022/04/12 01:41:32;;;;;;;6.60;3.28;;;;;;;5.42;80.34;101373.16;5019669;28;20544;-75
2022/04/12 01:43:58;;;;;;;5.25;2.95;;;;;;;5.53;79.60;101388.97;5017946;28;20095;-76
2022/04/12 01:46:24;;;;;;;5.38;3.25;;;;;;;5.50;80.22;101382.16;5004758;28;20037;-76
2022/04/12 01:48:49;;;;;;;4.13;2.47;;;;;;;5.49;80.25;101380.50;5022135;28;20154;-76
2022/04/12 01:51:15;;;;;;;5.00;2.83;;;;;;;5.41;80.01;101368.88;5022640;28;20030;-76
2022/04/12 01:53:41;;;;;;;5.57;2.67;;;;;;;5.49;79.86;101375.28;5021237;28;20033;-76
2022/04/12 01:56:06;;;;;;;7.72;3.28;;;;;;;5.48;80.19;101370.13;5023353;28;20099;-76
2022/04/12 01:58:33;;;;;;;6.53;2.92;;;;;;;5.47;79.81;101373.72;5020633;28;20029;-76
2022/04/12 02:00:59;;;;;;;4.90;3.00;;;;;;;5.40;79.40;101361.94;5019612;28;20030;-76
2022/04/12 02:03:25;;;;;;;5.82;3.10;;;;;;;5.47;79.62;101358.00;5004390;28;20033;-76
2022/04/12 02:05:51;;;;;;;7.70;3.13;;;;;;;5.36;79.63;101356.94;5017089;28;20033;-76
2022/04/12 02:08:17;;;;;;;7.35;3.55;;;;;;;5.47;79.52;101373.72;5001623;28;20029;-76
2022/04/12 02:10:42;;;;;;;7.63;3.33;;;;;;;5.43;79.81;101365.22;5021101;28;20064;-76
2022/04/12 02:13:07;;;;;;;6.55;4.03;;;;;;;5.42;79.24;101366.16;5020262;28;20025;-76
2022/04/12 02:15:33;;;;;;;7.80;4.07;;;;;;;5.42;79.07;101376.63;5019445;28;20029;-76
2022/04/12 02:17:58;;;;;;;7.80;5.07;;;;;;;5.42;79.72;101362.69;5006539;28;20018;-76
2022/04/12 02:20:24;;;;;;;7.63;3.70;;;;;;;5.49;78.30;101354.31;5018002;28;20032;-76
2022/04/12 02:22:49;;;;;;;5.90;3.75;;;;;;;5.53;78.68;101358.41;5004196;28;20070;-76
2022/04/12 02:25:15;;;;;;;8.07;3.60;;;;;;;5.50;78.74;101355.16;5022928;28;20034;-76
2022/04/12 02:27:40;;;;;;;10.23;3.90;;;;;;;5.49;78.04;101353.50;5003068;28;20101;-76
2022/04/12 02:30:06;;;;;;;6.07;3.15;;;;;;;5.44;78.44;101343.31;5002724;28;20113;-77
2022/04/12 02:32:32;;;;;;;8.98;3.92;;;;;;;5.42;79.47;101341.75;5018868;28;20033;-76
2022/04/12 02:35:00;;;;;;;8.55;4.07;;;;;;;5.37;79.43;101347.28;5001075;28;20525;-76
2022/04/12 02:37:28;;;;;;;6.47;2.97;;;;;;;5.33;80.27;101345.81;5006696;28;20026;-76
2022/04/12 02:39:54;;;;;;;8.80;3.83;;;;;;;5.28;80.48;101338.28;5017266;28;20434;-76
2022/04/12 02:42:19;;;;;;;7.65;3.22;;;;;;;5.25;80.44;101342.91;5005584;28;20034;-75
2022/04/12 02:44:45;;;;;;;4.97;3.58;;;;;;;5.23;80.27;101335.16;5019716;28;20552;-76
2022/04/12 02:47:10;;;;;;;5.90;3.38;;;;;;;5.15;81.10;101330.41;5021560;28;20030;-77
2022/04/12 02:49:36;;;;;;;6.97;4.18;;;;;;;5.19;81.05;101344.16;5018323;28;20036;-76
2022/04/12 02:52:01;;;;;;;9.18;4.28;;;;;;;5.19;81.12;101348.56;5019631;28;20711;-76
2022/04/12 02:54:27;;;;;;;4.82;3.38;;;;;;;5.18;80.00;101347.69;5023533;28;20104;-76
2022/04/12 02:56:52;;;;;;;5.18;3.67;;;;;;;5.08;80.92;101333.56;5020487;28;20029;-76
2022/04/12 02:59:17;;;;;;;6.50;3.42;;;;;;;5.08;80.70;101334.41;5019562;28;20478;-76
2022/04/12 03:01:43;;;;;;;5.90;3.60;;;;;;;5.16;80.17;101349.56;5001223;28;20030;-76
2022/04/12 03:04:08;;;;;;;7.22;3.70;;;;;;;5.11;80.65;101351.66;5021058;28;20104;-77
2022/04/12 03:06:34;;;;;;;9.02;3.92;;;;;;;5.11;80.93;101362.97;5020535;28;20394;-76
2022/04/12 03:08:59;;;;;;;8.68;4.03;;;;;;;5.09;81.47;101364.84;5004942;28;20025;-76
2022/04/12 03:11:25;;;;;;;9.68;3.72;;;;;;;5.07;80.86;101365.88;5019905;28;20029;-76
2022/04/12 03:13:50;;;;;;;7.05;3.83;;;;;;;5.04;81.42;101355.63;5022644;28;20044;-76
2022/04/12 03:16:16;;;;;;;5.72;3.50;;;;;;;5.07;81.37;101360.66;5014957;28;20076;-76
2022/04/12 03:18:41;;;;;;;7.10;4.00;;;;;;;5.03;81.80;101359.19;5017689;28;20533;-76
2022/04/12 03:21:07;;;;;;;7.70;3.75;;;;;;;4.98;81.28;101354.25;5018561;28;20164;-76
2022/04/12 03:23:32;;;;;;;6.32;3.47;;;;;;;5.04;81.35;101368.72;5016737;28;20017;-76
2022/04/12 03:25:58;;;;;;;12.05;4.35;;;;;;;4.93;81.67;101344.09;5002136;28;20041;-76
2022/04/12 03:28:23;;;;;;;9.35;4.07;;;;;;;5.06;81.17;101388.59;5020166;28;20022;-76
2022/04/12 03:30:49;;;;;;;9.63;3.95;;;;;;;4.95;80.94;101360.53;5018263;28;20036;-76
2022/04/12 03:33:14;;;;;;;9.00;4.20;;;;;;;5.05;81.39;101373.00;5002239;28;20417;-76
2022/04/12 03:35:39;;;;;;;5.95;4.35;;;;;;;5.02;81.08;101367.97;5020948;28;20054;-76
2022/04/12 03:38:05;;;;;;;7.65;4.35;;;;;;;5.00;81.19;101375.91;5001065;28;20081;-76
2022/04/12 03:40:31;;;;;;;7.68;4.15;;;;;;;4.85;81.99;101345.53;5019783;28;20037;-76
2022/04/12 03:43:04;;;;;;;6.95;4.18;;;;;;;4.86;81.80;101353.28;5007875;28;20036;-75
2022/04/12 03:45:31;;;;;;;6.00;4.20;;;;;;;4.89;82.72;101367.94;5020012;28;20110;-76
2022/04/12 03:47:57;;;;;;;6.40;4.13;;;;;;;4.82;82.46;101364.88;5019377;28;20053;-76
2022/04/12 03:50:23;;;;;;;6.82;3.50;;;;;;;4.82;83.23;101361.44;5017325;28;20183;-76
2022/04/12 03:52:50;;;;;;;8.27;3.80;;;;;;;4.67;83.37;101348.41;5020004;28;20505;-76
2022/04/12 03:55:30;;;;;;;6.47;3.78;;;;;;;4.73;83.87;101357.66;5004093;28;20371;-76
2022/04/12 03:57:55;;;;;;;7.05;3.45;;;;;;;4.62;83.65;101341.81;5018875;28;20033;-76
2022/04/12 04:00:21;;;;;;;8.60;4.68;;;;;;;4.69;84.10;101343.09;5001631;28;20037;-76
2022/04/12 04:02:46;;;;;;;8.40;4.95;;;;;;;4.52;84.29;101324.09;5002538;28;20088;-76
2022/04/12 04:05:12;;;;;;;7.65;4.35;;;;;;;4.59;83.53;101344.63;5001434;28;20483;-76
2022/04/12 04:07:38;;;;;;;8.50;4.97;;;;;;;4.52;84.87;101345.00;5025902;28;20049;-76
2022/04/12 04:10:04;;;;;;;8.48;3.65;;;;;;;4.53;85.34;101345.88;5016172;28;20036;-76
2022/04/12 04:12:30;;;;;;;8.93;5.32;;;;;;;4.47;85.39;101349.69;5015545;28;20053;-76
2022/04/12 04:14:55;;;;;;;8.82;4.40;;;;;;;4.44;85.05;101341.22;5005559;28;20179;-76
2022/04/12 04:17:21;;;;;;;8.55;4.05;;;;;;;4.44;85.18;101335.97;5018141;28;20040;-76
2022/04/12 04:19:47;;;;;;;7.82;5.35;;;;;;;4.37;85.31;101321.63;5022250;28;20045;-76
2022/04/12 04:22:12;;;;;;;7.75;5.10;;;;;;;4.34;86.16;101320.06;5016780;28;20432;-76
2022/04/12 04:24:37;;;;;;;10.05;5.35;;;;;;;4.39;86.19;101323.22;4986170;28;20029;-76
2022/04/12 04:27:05;;;;;;;13.15;5.95;;;;;;;4.40;85.99;101327.53;4985058;28;20489;-76
2022/04/12 04:29:33;;;;;;;7.88;5.18;;;;;;;4.41;85.82;101339.63;5016734;28;20497;-75
2022/04/12 04:31:59;;;;;;;10.43;5.38;;;;;;;4.41;86.26;101333.56;5016285;28;20084;-75
2022/04/12 04:34:24;;;;;;;6.25;4.45;;;;;;;4.38;86.37;101332.00;5017944;28;20428;-76
2022/04/12 04:36:50;;;;;;;8.13;4.88;;;;;;;4.17;85.40;101294.19;5021123;28;20049;-75
2022/04/12 04:39:15;;;;;;;9.23;4.82;;;;;;;4.25;85.98;101300.59;5017398;28;20038;-75
2022/04/12 04:41:41;;;;;;;7.50;5.07;;;;;;;4.40;85.80;101319.69;5018208;28;20080;-75
2022/04/12 04:44:07;;;;;;;9.70;4.68;;;;;;;4.43;85.71;101319.47;5014512;28;20033;-76
2022/04/12 04:46:33;;;;;;;6.78;4.63;;;;;;;4.42;86.05;101317.81;5015012;28;20038;-77
2022/04/12 04:48:58;;;;;;;9.93;4.97;;;;;;;4.42;84.82;101332.63;5015824;28;20111;-76
2022/04/12 04:51:24;;;;;;;9.63;5.88;;;;;;;4.40;86.12;101329.28;5020563;28;20037;-76
2022/04/12 04:53:57;;;;;;;9.18;5.35;;;;;;;4.41;85.77;101329.19;5014825;28;20030;-76
2022/04/12 04:56:23;;;;;;;9.68;4.93;;;;;;;4.35;85.96;101313.06;5008733;28;20038;-77
2022/04/12 04:58:48;;;;;;;9.88;5.38;;;;;;;4.45;84.98;101332.44;5016491;28;20033;-75
2022/04/12 05:01:13;;;;;;;8.63;4.80;;;;;;;4.48;84.98;101329.63;5016757;28;20072;-75
2022/04/12 05:03:39;;;;;;;9.80;5.15;;;;;;;4.50;84.53;101330.38;5017034;28;20045;-75
2022/04/12 05:06:04;;;;;;;13.52;5.30;;;;;;;4.46;84.29;101334.94;4983198;28;20547;-76
2022/04/12 05:08:30;;;;;;;8.30;5.22;;;;;;;4.57;83.91;101352.56;4993214;28;20040;-76
2022/04/12 05:10:55;;;;;;;11.38;4.78;;;;;;;4.55;83.90;101343.97;5012354;28;20541;-76
2022/04/12 05:13:21;;;;;;;12.40;5.13;;;;;;;4.56;84.03;101344.84;5014202;28;20402;-76
2022/04/12 05:15:46;;;;;;;10.45;5.82;;;;;;;4.57;83.93;101344.72;4999222;28;20421;-76
2022/04/12 05:18:11;;;;;;;8.98;5.90;;;;;;;4.39;84.51;101318.00;5009524;28;20030;-76
2022/04/12 05:20:37;;;;;;;8.90;5.15;;;;;;;4.56;83.66;101344.84;5012713;28;20026;-76
2022/04/12 05:23:02;;;;;;;10.00;4.95;;;;;;;4.39;84.54;101323.22;5010141;28;20033;-76
2022/04/12 05:25:28;;;;;;;7.38;4.93;;;;;;;4.27;84.75;101298.72;5015616;28;20503;-76
2022/04/12 05:27:53;;;;;;;9.57;5.18;;;;;;;4.40;84.44;101318.81;5012080;28;20697;-76
2022/04/12 05:30:19;;;;;;;13.50;5.72;;;;;;;4.53;84.51;101332.81;5010423;28;20076;-76
2022/04/12 05:32:45;;;;;;;10.05;4.90;;;;;;;4.33;83.74;101305.31;5012022;28;20045;-79
2022/04/12 05:35:12;;;;;;;8.68;5.22;;;;;;;4.50;83.94;101331.19;5015183;28;20144;-77
2022/04/12 05:37:41;;;;;;;7.65;4.95;;;;;;;4.49;83.73;101319.09;5019917;28;20034;-79
2022/04/12 05:40:09;;;;;;;9.88;5.32;;;;;;;4.65;84.26;101345.06;5005481;28;20087;-74
2022/04/12 05:42:34;;;;;;;9.38;5.20;;;;;;;4.62;83.66;101323.53;5019369;28;20141;-78
2022/04/12 05:45:00;;;;;;;15.43;5.40;;;;;;;4.82;83.98;101335.28;5002921;28;20033;-78
2022/04/12 05:47:25;;;;;;;7.65;5.10;;;;;;;4.89;83.42;101333.94;5007162;28;20068;-78
2022/04/12 05:49:51;;;;;;;13.35;5.70;;;;;;;4.94;82.41;101308.31;4998409;28;20036;-77
2022/04/12 05:52:16;;;;;;;7.10;5.03;;;;;;;5.11;82.04;101315.03;4983229;28;20033;-79
2022/04/12 05:54:41;;;;;;;7.90;4.93;;;;;;;5.36;81.60;101328.16;4998913;28;20116;-78
2022/04/12 05:57:07;;;;;;;10.35;5.55;;;;;;;5.46;81.30;101311.81;5020947;28;20107;-79
2022/04/12 05:59:32;;;;;;;9.65;5.53;;;;;;;5.66;80.36;101298.19;5023289;28;20056;-80
2022/04/12 06:01:57;;;;;;;8.27;5.70;;;;;;;5.95;80.21;101326.75;5020263;28;20120;-78
2022/04/12 06:04:23;;;;;;;8.55;5.22;;;;;;;6.18;79.29;101318.13;5025119;28;20036;-82
2022/04/12 06:06:48;;;;;;;8.13;5.32;;;;;;;6.03;78.51;101284.28;5017920;28;20034;-81
2022/04/12 06:09:14;;;;;;;10.93;5.55;;;;;;;6.20;78.71;101288.31;5017596;28;20045;-80
2022/04/12 06:11:39;;;;;;;8.20;5.20;;;;;;;6.33;77.38;101310.06;5005961;28;20117;-80
2022/04/12 06:14:04;;;;;;;9.77;5.53;;;;;;;6.38;76.75;101303.56;4988414;28;20030;-80
2022/04/12 06:16:30;;;;;;;10.65;5.28;;;;;;;6.53;75.58;101322.59;5002144;28;20037;-80
2022/04/12 06:18:56;;;;;;;8.25;5.22;;;;;;;6.56;75.52;101317.09;5016727;28;20050;-79
2022/04/12 06:21:21;;;;;;;6.32;4.40;;;;;;;6.59;75.43;101309.00;5027212;28;20022;-80
2022/04/12 06:23:47;;;;;;;8.35;4.85;;;;;;;6.62;75.81;101307.09;5023101;28;20030;-77
2022/04/12 06:26:12;;;;;;;8.52;4.93;;;;;;;6.59;75.18;101306.38;5020245;28;20042;-77
2022/04/12 06:28:38;;;;;;;10.93;5.43;;;;;;;6.51;75.18;101279.91;5019845;28;20068;-78
2022/04/12 06:31:03;;;;;;;8.15;5.05;;;;;;;6.64;74.83;101297.34;4998671;28;20040;-78
2022/04/12 06:33:29;;;;;;;8.18;5.22;;;;;;;6.71;74.77;101299.41;5018500;28;20034;-78
2022/04/12 06:35:54;;;;;;;11.27;5.03;;;;;;;6.77;74.76;101300.72;5001445;28;20050;-78
2022/04/12 06:38:20;;;;;;;10.45;4.97;;;;;;;6.82;74.77;101296.00;5018260;28;20040;-78
2022/04/12 06:40:48;;;;;;;7.00;4.82;;;;;;;6.89;74.53;101286.69;5021968;28;20021;-79
2022/04/12 06:43:13;;;;;;;10.15;5.25;;;;;;;6.93;73.95;101287.31;5013244;28;20049;-78
2022/04/12 06:45:39;;;;;;;9.27;4.45;;;;;;;6.98;74.12;101286.00;5021865;28;20030;-79
2022/04/12 06:48:05;;;;;;;11.95;5.85;;;;;;;7.10;73.57;101289.50;5013733;28;20032;-79
2022/04/12 06:50:30;;;;;;;8.57;4.68;;;;;;;7.10;73.54;101278.13;5000288;28;20038;-79
2022/04/12 06:52:57;;;;;;;10.35;5.60;;;;;;;7.27;72.75;101289.97;5014726;28;20057;-79
2022/04/12 06:55:23;;;;;;;8.60;4.63;;;;;;;7.35;72.46;101293.69;5017978;28;20507;-79
2022/04/12 06:57:49;;;;;;;7.20;4.38;;;;;;;7.27;72.17;101277.69;5019754;28;20119;-79
2022/04/12 07:00:16;;;;;;;8.02;4.97;;;;;;;7.31;71.88;101287.00;5016367;28;20054;-78
2022/04/12 07:02:42;;;;;;;8.70;4.68;;;;;;;7.46;71.46;101306.00;5013339;28;20424;-79
2022/04/12 07:05:08;;;;;;;10.52;5.25;;;;;;;7.39;71.97;101303.00;5017336;28;20029;-79
2022/04/12 07:07:38;;;;;;;7.93;4.95;;;;;;;7.51;72.32;101313.50;5017362;28;20121;-78
2022/04/12 07:10:08;;;;;;;8.20;4.88;;;;;;;7.36;72.63;101290.13;5020580;28;20030;-78
2022/04/12 07:12:35;;;;;;;9.25;4.97;;;;;;;7.27;72.68;101285.56;5023805;28;20033;-78
2022/04/12 07:15:00;;;;;;;6.18;4.38;;;;;;;7.35;72.84;101306.00;5007067;28;20094;-79
2022/04/12 07:17:26;;;;;;;6.25;4.60;;;;;;;7.39;73.17;101325.81;5019644;28;20120;-79
2022/04/12 07:19:51;;;;;;;8.02;5.15;;;;;;;7.32;74.05;101314.13;5016174;28;20632;-78
2022/04/12 07:22:17;;;;;;;7.97;5.30;;;;;;;7.45;73.47;101327.13;4987989;28;20029;-79
2022/04/12 07:24:42;;;;;;;7.80;5.22;;;;;;;7.64;73.14;101324.75;5014575;28;20026;-79
2022/04/12 07:27:08;;;;;;;7.85;4.80;;;;;;;7.57;72.87;101313.88;5003063;28;20037;-78
2022/04/12 07:29:34;;;;;;;7.50;4.75;;;;;;;7.60;73.34;101320.72;5022342;28;20396;-78
2022/04/12 07:32:00;;;;;;;7.95;5.00;;;;;;;7.62;72.51;101322.25;5007797;28;20033;-78
2022/04/12 07:34:25;;;;;;;7.20;4.65;;;;;;;7.68;73.11;101320.09;5015457;28;20433;-78
2022/04/12 07:36:53;;;;;;;8.57;4.70;;;;;;;7.97;72.61;101331.81;5005431;28;20560;-78
2022/04/12 07:39:20;;;;;;;11.75;5.90;;;;;;;7.99;71.96;101322.00;5024523;28;20030;-79
2022/04/12 07:41:47;;;;;;;8.27;5.43;;;;;;;8.53;72.12;101344.00;5019499;28;20038;-78
2022/04/12 07:44:13;;;;;;;7.40;4.65;;;;;;;8.86;70.20;101347.47;5020056;28;20033;-78
2022/04/12 07:46:38;;;;;;;10.45;5.25;;;;;;;8.65;69.95;101319.34;5017110;28;20441;-78
2022/04/12 07:49:04;;;;;;;6.82;4.93;;;;;;;9.07;70.10;101314.09;4999770;28;20033;-78
2022/04/12 07:51:29;;;;;;;11.32;5.25;;;;;;;9.52;67.85;101325.31;5006084;28;20463;-78
2022/04/12 07:53:55;;;;;;;9.52;5.75;;;;;;;9.42;67.52;101307.63;4987097;28;20029;-78
2022/04/12 07:56:20;;;;;;;7.28;5.07;;;;;;;9.79;66.46;101299.19;4993096;28;20045;-78
2022/04/12 07:58:45;;;;;;;8.88;5.63;;;;;;;10.23;65.60;101314.72;5005066;28;20026;-78
2022/04/12 08:01:11;;;;;;;9.07;5.70;;;;;;;10.29;64.81;101317.66;5005872;28;20341;-78
2022/04/12 08:03:36;;;;;;;8.95;5.07;;;;;;;10.96;64.28;101312.56;5014289;28;20084;-78
2022/04/12 08:06:02;;;;;;;9.02;6.38;;;;;;;10.38;64.50;101280.88;5014790;28;20021;-78
2022/04/12 08:08:28;;;;;;;7.13;4.95;;;;;;;10.96;63.45;101303.81;5003665;28;20148;-79
2022/04/12 08:10:54;;;;;;;6.57;5.10;;;;;;;10.98;63.67;101300.03;5017429;28;20623;-78
2022/04/12 08:13:19;;;;;;;6.15;4.65;;;;;;;11.36;62.52;101305.38;4997784;28;20176;-78
2022/04/12 08:15:44;;;;;;;7.72;5.70;;;;;;;11.39;61.99;101282.13;5019399;28;20060;-79
2022/04/12 08:18:10;;;;;;;8.85;5.03;;;;;;;11.79;60.47;101307.44;5023051;28;20036;-80
2022/04/12 08:20:35;;;;;;;7.40;5.32;;;;;;;12.08;60.41;101309.94;5026804;28;20155;-80
2022/04/12 08:23:02;;;;;;;8.70;5.45;;;;;;;11.44;60.08;101277.25;4992921;28;20029;-80
2022/04/12 08:25:28;;;;;;;10.02;5.60;;;;;;;11.45;60.91;101280.72;5024033;28;20045;-80
2022/04/12 08:27:53;;;;;;;8.35;5.50;;;;;;;11.58;60.90;101288.31;5021933;28;20362;-79
2022/04/12 08:30:19;;;;;;;7.70;4.95;;;;;;;11.81;61.18;101297.53;4997981;28;20045;-78
2022/04/12 08:32:44;;;;;;;7.07;5.80;;;;;;;12.30;60.08;101292.81;5019668;28;20029;-79
2022/04/12 08:35:10;;;;;;;9.20;5.78;;;;;;;11.96;59.87;101281.22;5005124;28;20053;-79
2022/04/12 08:37:36;;;;;;;7.20;5.70;;;;;;;13.01;60.98;101285.78;5022593;28;20470;-79
2022/04/12 08:40:02;;;;;;;7.30;5.60;;;;;;;12.89;60.37;101292.31;5014123;28;20140;-79
2022/04/12 08:42:27;;;;;;;9.32;6.47;;;;;;;12.98;59.22;101259.63;5018309;28;20180;-78
2022/04/12 08:44:53;;;;;;;7.45;6.03;;;;;;;13.60;58.01;101269.25;5002721;28;20132;-79
2022/04/12 08:47:19;;;;;;;8.40;5.55;;;;;;;13.31;57.66;101275.75;5004352;28;20034;-79
2022/04/12 08:49:45;;;;;;;8.10;5.33;;;;;;;12.01;59.50;101248.03;5020212;28;20041;-79
2022/04/12 08:52:13;;;;;;;9.52;6.00;;;;;;;11.80;60.60;101279.16;5015404;28;20136;-79
2022/04/12 08:54:40;;;;;;;7.10;5.65;;;;;;;11.23;60.88;101250.19;5012909;28;20030;-78
2022/04/12 08:57:05;;;;;;;9.75;6.80;;;;;;;11.68;61.17;101260.03;5007930;28;20037;-78
2022/04/12 08:59:31;;;;;;;7.47;5.43;;;;;;;12.23;59.69;101265.28;5012326;28;20029;-78
2022/04/12 09:01:58;;;;;;;8.10;5.18;;;;;;;12.01;60.39;101260.44;5020858;28;20033;-78
2022/04/12 09:04:26;;;;;;;12.13;5.63;;;;;;;11.93;59.96;101254.06;5014211;28;20088;-78
2022/04/12 09:06:52;;;;;;;12.55;6.63;;;;;;;11.96;59.72;101252.13;5018803;28;20091;-78
2022/04/12 09:09:20;;;;;;;8.98;6.22;;;;;;;11.71;60.97;101222.72;5014892;28;20493;-79
2022/04/12 09:11:55;;;;;;;9.13;5.40;;;;;;;12.30;60.25;101250.47;5011578;28;20415;-79
2022/04/12 09:14:20;;;;;;;9.15;6.15;;;;;;;12.48;60.54;101215.22;5021412;28;20049;-79
2022/04/12 09:16:46;;;;;;;7.78;5.80;;;;;;;12.86;60.20;101247.59;5019228;28;20048;-80
2022/04/12 09:19:12;;;;;;;10.07;6.30;;;;;;;12.87;59.16;101247.47;5022489;28;20025;-79
2022/04/12 09:21:47;;;;;;;9.77;6.43;;;;;;;13.13;59.70;101228.91;5012476;28;20112;-79
2022/04/12 09:24:22;;;;;;;9.98;6.43;;;;;;;13.64;59.14;101233.47;5023369;28;20044;-79
2022/04/12 09:26:56;;;;;;;9.50;6.78;;;;;;;13.28;58.02;101239.78;5014343;28;20029;-79
2022/04/12 09:29:29;;;;;;;9.75;7.28;;;;;;;13.16;59.24;101223.28;5023445;28;20120;-79
2022/04/12 09:31:58;;;;;;;8.13;6.82;;;;;;;13.33;59.36;101216.28;5015261;28;20033;-78
2022/04/12 09:34:24;;;;;;;11.98;6.38;;;;;;;13.85;57.60;101219.75;5015453;28;20158;-80
2022/04/12 09:36:50;;;;;;;9.00;6.15;;;;;;;13.88;57.33;101211.47;5016457;28;20045;-80
2022/04/12 09:39:19;;;;;;;9.05;6.88;;;;;;;13.78;57.03;101227.53;5017597;28;20042;-78
2022/04/12 09:41:47;;;;;;;9.52;6.90;;;;;;;13.39;58.22;101201.53;5015026;28;20052;-79
2022/04/12 09:44:18;;;;;;;12.18;7.10;;;;;;;13.94;59.52;101200.22;5011732;28;20025;-78
2022/04/12 09:46:43;;;;;;;10.82;6.80;;;;;;;14.45;57.02;101197.41;5014753;28;20734;-78
2022/04/12 09:49:09;;;;;;;9.00;6.32;;;;;;;15.28;55.88;101196.28;5021478;28;20128;-78
2022/04/12 09:51:36;;;;;;;8.27;6.35;;;;;;;14.90;56.10;101193.41;4991239;28;20529;-78
2022/04/12 09:54:06;;;;;;;9.95;6.65;;;;;;;14.63;55.65;101202.56;5014855;28;20179;-78
2022/04/12 09:56:33;;;;;;;13.00;7.90;;;;;;;14.63;56.00;101190.13;5014847;28;20382;-78
2022/04/12 09:59:07;;;;;;;11.52;7.90;;;;;;;14.47;56.33;101225.47;5017008;28;20294;-78
2022/04/12 10:01:39;;;;;;;9.00;7.10;;;;;;;14.14;56.82;101206.03;5018163;28;20588;-79
2022/04/12 10:04:08;;;;;;;9.50;7.03;;;;;;;14.80;56.59;101215.66;5017596;28;20112;-79
2022/04/12 10:06:42;;;;;;;9.70;6.60;;;;;;;14.84;55.97;101205.53;5027607;28;20038;-78
2022/04/12 10:09:10;;;;;;;10.68;7.47;;;;;;;15.08;55.51;101220.59;5017805;28;20033;-79
2022/04/12 10:11:36;;;;;;;12.13;7.18;;;;;;;15.07;56.45;101200.34;5024557;28;20374;-79
2022/04/12 10:14:02;;;;;;;9.80;7.00;;;;;;;16.17;56.07;101213.59;5017815;28;20041;-78
2022/04/12 10:16:28;;;;;;;10.20;7.18;;;;;;;15.72;55.01;101212.56;5026468;28;20482;-79
2022/04/12 10:18:54;;;;;;;9.85;7.40;;;;;;;16.12;54.88;101178.69;5031006;28;20549;-79
2022/04/12 10:21:22;;;;;;;12.32;7.13;;;;;;;15.99;53.52;101205.91;5021097;28;20026;-78
2022/04/12 10:23:55;;;;;;;9.73;7.97;;;;;;;15.81;55.72;101186.75;5021185;28;20329;-80
2022/04/12 10:26:23;;;;;;;11.00;7.82;;;;;;;16.69;54.51;101198.66;5026177;28;20501;-79
2022/04/12 10:28:54;;;;;;;9.23;7.40;;;;;;;16.03;55.50;101191.22;5036674;28;20021;-79
2022/04/12 10:31:22;;;;;;;12.18;7.78;;;;;;;16.13;54.87;101195.50;5024739;28;20025;-78
2022/04/12 10:34:06;;;;;;;11.73;7.75;;;;;;;16.13;56.66;101200.81;5024386;28;20390;-78
2022/04/12 10:37:05;;;;;;;9.73;7.47;;;;;;;17.13;55.56;101202.41;5028357;28;20493;-79
2022/04/12 10:39:37;;;;;;;10.20;7.53;;;;;;;17.23;52.65;101205.63;5020169;28;20025;-79
2022/04/12 10:42:11;;;;;;;13.10;7.65;;;;;;;17.19;53.00;101194.50;5015260;28;20456;-78
2022/04/12 10:44:56;;;;;;;14.52;8.02;;;;;;;16.96;52.36;101177.75;5026583;28;20018;-78
2022/04/12 10:47:29;;;;;;;12.30;8.52;;;;;;;16.91;52.59;101154.31;5020819;28;20055;-78
2022/04/12 10:50:18;;;;;;;10.55;8.23;;;;;;;17.05;51.96;101174.00;5016395;28;20398;-78
2022/04/12 10:52:51;;;;;;;10.18;7.30;;;;;;;17.03;53.24;101133.38;5021053;28;20052;-79
2022/04/12 10:55:23;;;;;;;14.95;7.97;;;;;;;17.55;52.32;101156.34;5017402;28;20034;-79
2022/04/12 10:57:50;;;;;;;10.68;8.00;;;;;;;17.61;50.75;101147.56;5016959;28;20032;-79
2022/04/12 11:00:16;;;;;;;11.68;8.35;;;;;;;16.48;53.35;101161.22;4998916;28;20030;-78
2022/04/12 11:02:52;;;;;;;12.05;6.90;;;;;;;16.69;52.42;101137.38;5020434;28;20088;-78
2022/04/12 11:05:35;;;;;;;10.80;7.93;;;;;;;17.62;52.59;101137.75;5019926;28;20038;-80
2022/04/12 11:08:25;;;;;;;10.18;7.70;;;;;;;17.13;51.30;101139.22;5023859;28;20060;-79
2022/04/12 11:10:51;;;;;;;13.73;8.37;;;;;;;16.25;54.15;101135.47;5012279;28;20413;-78
2022/04/12 11:13:20;;;;;;;11.93;6.63;;;;;;;15.87;53.47;101126.63;5016541;28;20120;-78
2022/04/12 11:15:54;;;;;;;10.88;7.40;;;;;;;16.48;53.59;101126.59;5021791;28;20033;-78
2022/04/12 11:18:20;;;;;;;13.57;7.25;;;;;;;17.41;52.45;101109.19;5013752;28;20533;-78
2022/04/12 11:20:59;;;;;;;10.85;8.23;;;;;;;17.48;51.34;101107.41;4998223;28;20033;-80
2022/04/12 11:23:48;;;;;;;11.13;7.82;;;;;;;17.56;51.75;101085.94;5012921;28;20041;-79
2022/04/12 11:26:37;;;;;;;8.85;7.32;;;;;;;17.85;51.43;101126.91;5013619;28;20553;-80
2022/04/12 11:29:14;;;;;;;13.63;8.52;;;;;;;17.87;51.57;101122.19;5018980;28;20033;-80
2022/04/12 11:31:44;;;;;;;11.05;7.43;;;;;;;17.53;52.56;101123.69;5012860;28;20030;-79